ADDS METAR Data INFO
IDs: Format: Raw Decoded Include TAF

Data at: 0315 UTC 22 Apr 2018

KMYP 220252Z AUTO 33008KT M05/M06 A3043 RMK AO2 PWINO
KMYP 220233Z AUTO 28014KT M05/M06 A3043 RMK AO2 PWINO
KMYP 220214Z AUTO 29011KT M05/M06 A3041 RMK AO2 PWINO
KMYP 220150Z AUTO 30016KT M05/M05 A3041 RMK AO2 PWINO
KMYP 220135Z AUTO 28014KT M04/M05 A3041 RMK AO2 PWINO
KMYP 220111Z AUTO 26015KT M03/M04 A3041 RMK AO2 PWINO
KMYP 220052Z AUTO 26017KT M03/M04 A3039 RMK AO2 PWINO
KMYP 220034Z AUTO 26013KT M03/M04 A3039 RMK AO2 PWINO
KMYP 220016Z AUTO 28016KT OVC001 M03/M03 A3039 RMK AO2 PWINO
KMYP 212351Z AUTO 27022G29KT M03/M03 A3038 RMK AO2 PWINO
KMYP 212332Z AUTO 27023KT M03/M04 A3038 RMK AO2 PWINO
KMYP 212312Z AUTO 27026G31KT M03/M03 A3036 RMK AO2 PWINO
KMYP 212251Z AUTO 26015KT M03/M04 A3038 RMK AO2 PWINO
KMYP 212233Z AUTO 27015G19KT M03/M04 A3037 RMK AO2 PWINO
KMYP 212214Z AUTO 26014G20KT M03/M03 A3036 RMK AO2 PWINO
KMYP 212152Z AUTO 27016G22KT M03/M03 A3035 RMK AO2 PWINO
KMYP 212132Z AUTO 27021G27KT M03/M04 A3033 RMK AO2 PWINO
KMYP 212112Z AUTO 27019KT OVC003 M03/M05 A3033 RMK AO2 PWINO
KMYP 212056Z AUTO 26019G25KT OVC001 M03/M05 A3033 RMK AO2 PWINO
KMYP 212030Z AUTO 27019G28KT OVC001 M04/M05 A3032 RMK AO2 PWINO
KMYP 212012Z AUTO 26020G25KT OVC001 M04/M05 A3031 RMK AO2 PWINO
KMYP 211954Z AUTO 26023G29KT OVC001 M05/M05 A3030 RMK AO2 PWINO
KMYP 211936Z AUTO 26026G32KT OVC001 M05/M06 A3029 RMK AO2 PWINO
KMYP 211915Z AUTO 26022G26KT OVC001 M05/M06 A3030 RMK AO2 PWINO
KMYP 211854Z AUTO 27024G32KT OVC001 M05/M06 A3029 RMK AO2 PWINO
KMYP 211831Z AUTO 26018G32KT OVC001 M05/M06 A3030 RMK AO2 PWINO
KMYP 211813Z AUTO 27022G26KT OVC001 M05/M06 A3029 RMK AO2 PWINO
KMYP 211751Z AUTO 25025G29KT OVC001 M05/M06 A3028 RMK AO2 PWINO
KMYP 211733Z AUTO 25023G26KT OVC001 M05/M06 A3028 RMK AO2 LTG DSNT E PWINO
KMYP 211714Z AUTO 25012G17KT OVC001 M05/M06 A3029 RMK AO2 PWINO
KMYP 211656Z AUTO 25017KT OVC001 M06/M06 A3028 RMK AO2 PWINO
KMYP 211631Z AUTO 24012KT BKN001 OVC006 M06/M07 A3028 RMK AO2 PWINO
KMYP 211612Z AUTO 25013KT BKN002 BKN009 OVC013 M06/M07 A3028 RMK AO2 PWINO
KMYP 211553Z AUTO 27007KT M06/M07 A3028 RMK AO2 PWINO
KMYP 211533Z AUTO 31004KT M06/M07 A3027 RMK AO2 LTG DSNT SE PWINO
KMYP 211513Z AUTO 31006KT OVC001 M06/M07 A3027 RMK AO2 PWINO
KMYP 211450Z AUTO 27009KT VCTS OVC001 M07/M08 A3025 RMK AO2
KMYP 211432Z AUTO 25013KT VCTS OVC001 M07/M08 A3024 RMK AO2
KMYP 211414Z AUTO 23009KT OVC001 M07/M08 A3023 RMK AO2 LTG DSNT SE PWINO
KMYP 211353Z AUTO 25010KT BKN001 M08/M10 A3022 RMK AO2 PWINO
KMYP 211336Z AUTO 25009KT BKN001 M08/M10 A3021 RMK AO2 PWINO
KMYP 211312Z AUTO 24007KT OVC001 M08/M10 A3020 RMK AO2 PWINO
KMYP 211255Z AUTO 23006KT BKN001 BKN041 M08/M10 A3020 RMK AO2 PWINO
KMYP 211231Z AUTO 26006KT M08/M10 A3020 RMK AO2 PWINO
KMYP 211212Z AUTO 28004KT BKN001 BKN005 OVC045 M08/M09 A3019 RMK AO2 PWINO
KMYP 211152Z AUTO 31003KT BKN002 OVC048 M08/M09 A3019 RMK AO2 PWINO
KMYP 211132Z AUTO 26007KT BKN002 OVC048 M08/M09 A3018 RMK AO2 PWINO
KMYP 211114Z AUTO 26007KT M08/M09 A3018 RMK AO2 PWINO
KMYP 211053Z AUTO 27005KT M08/M09 A3018 RMK AO2 PWINO
KMYP 211034Z AUTO 27003KT OVC002 M08/M09 A3017 RMK AO2 PWINO
KMYP 211014Z AUTO 24003KT OVC002 M07/M09 A3016 RMK AO2 PWINO
KMYP 210956Z AUTO 25013KT OVC002 M07/M09 A3015 RMK AO2 PWINO
KMYP 210936Z AUTO 26017G21KT OVC002 M07/M09 A3013 RMK AO2 PWINO
KMYP 210912Z AUTO 26014KT OVC002 M07/M09 A3015 RMK AO2 PWINO
KMYP 210854Z AUTO 26015KT OVC002 M07/M09 A3015 RMK AO2 PWINO
KMYP 210836Z AUTO 26014KT OVC002 M07/M09 A3015 RMK AO2 PWINO
KMYP 210814Z AUTO 26015KT OVC002 M07/M09 A3015 RMK AO2 PWINO
KMYP 210752Z AUTO 26015KT OVC002 M07/M09 A3015 RMK AO2 PWINO
KMYP 210734Z AUTO 26020KT OVC002 M07/M09 A3015 RMK AO2 PWINO
KMYP 210713Z AUTO 26020KT OVC002 M07/M09 A3015 RMK AO2 PWINO
KMYP 210652Z AUTO 26021KT OVC002 M07/M09 A3014 RMK AO2 PWINO
KMYP 210635Z AUTO 27019KT 1/4SM FZFG OVC002 M07/M09 A3015 RMK AO2
KMYP 210613Z AUTO 26016KT 1/2SM SN OVC002 M08/M09 A3015 RMK AO2
KMYP 210556Z AUTO 27018KT 1/2SM SN OVC002 M08/M09 A3015 RMK AO2
KMYP 210531Z AUTO 27019KT BKN002 BKN011 OVC021 M08/M09 A3013 RMK AO2 PWINO
KMYP 210513Z AUTO 26017KT OVC002 M08/M09 A3013 RMK AO2 PWINO
KMYP 210448Z AUTO 26021KT OVC002 M08/M09 A3013 RMK AO2 PWINO
KMYP 210436Z AUTO 27021KT OVC002 M08/M09 A3013 RMK AO2 PWINO
KMYP 210413Z AUTO 26021KT OVC002 M08/M10 A3013 RMK AO2 PWINO
KMYP 210355Z AUTO 26022KT OVC002 M08/M10 A3012 RMK AO2 PWINO
KMYP 210330Z AUTO 26027KT OVC002 M08/M10 A3012 RMK AO2 PWINO
KMYP 210311Z AUTO 26027G33KT OVC002 M08/M10 A3012 RMK AO2 PWINO
KMYP 210251Z AUTO 27034G40KT 1/4SM +SN OVC002 M08/M10 A3010 RMK AO2 LTG DSNT E
KMYP 210232Z AUTO 26024G28KT 1/4SM VCTSFZFG OVC002 M08/M10 A3011 RMK AO2 LTG DSNT E
KMYP 210213Z AUTO 26022KT 2SM -SN BKN002 OVC006 M08/M10 A3010 RMK AO2
KMYP 210152Z AUTO 27033G39KT 3/4SM -SN OVC009 M08/M10 A3010 RMK AO2
KMYP 210134Z AUTO 27027G34KT 3SM -SN SCT011 BKN018 OVC038 M08/M09 A3010 RMK AO2
KMYP 210113Z AUTO 26022KT 7SM SCT012 SCT036 BKN050 M08/M09 A3010 RMK AO2
KMYP 210054Z AUTO 26021KT 10SM SCT010 BKN014 OVC060 M07/M09 A3010 RMK AO2
KMYP 210033Z AUTO 27019KT 7SM VCTS SCT007 BKN012 OVC019 M07/M08 A3009 RMK AO2 LTG DSNT E
KMYP 210015Z AUTO 27022G28KT 4SM BR SCT007 BKN016 BKN110 M07/M08 A3008 RMK AO2
KMYP 202354Z AUTO 27023G28KT 3SM BR SCT014 SCT120 M07/M09 A3008 RMK AO2 LTG DSNT E
KMYP 202335Z AUTO 28019G25KT 2SM BR SCT014 BKN120 M07/M08 A3007 RMK AO2 VIS 3/4V5 LTG DSNT E
KMYP 202315Z AUTO 29021G26KT 3SM BR SCT007 SCT080 BKN110 M07/M08 A3008 RMK AO2 LTG DSNT E
KMYP 202256Z AUTO 29021KT 7SM SCT003 BKN007 OVC100 M08/M09 A3009 RMK AO2 LTG DSNT E
KMYP 202230Z AUTO 28018G24KT 1/2SM -SN OVC002 M08/M09 A3008 RMK AO2
KMYP 202212Z AUTO 28017KT M1/4SM +SN OVC002 M08/M09 A3008 RMK AO2 LTG DSNT SE
KMYP 202153Z AUTO 26014KT M1/4SM +SN OVC002 M08/M09 A3008 RMK AO2
KMYP 202131Z AUTO M1/4SM +SN OVC002 M08/M09 A3008 RMK AO2 LTG DSNT N AND E
KMYP 202112Z AUTO M1/4SM +SN OVC002 M07/M09 A3007 RMK AO2 LTG DSNT N
KMYP 202054Z AUTO 27022KT M1/4SM +SN OVC002 M07/M08 A3007 RMK AO2 LTG DSNT E
KMYP 202032Z AUTO 18008G14KT 4SM -SN SCT002 BKN008 OVC031 M06/M07 A3007 RMK AO2 LTG DSNT E AND SE
KMYP 202013Z AUTO 20008G17KT 1/4SM -SN OVC002 M06/M07 A3007 RMK AO2 LTG DSNT E
KMYP 201952Z AUTO 21023G30KT 1/2SM SN OVC003 M06/M07 A3005 RMK AO2 LTG DSNT E AND NW
KMYP 201934Z AUTO 27011KT 1/2SM -SN OVC003 M06/M07 A3006 RMK AO2 LTG DSNT SE AND NW
KMYP 201916Z AUTO 29006KT M1/4SM -SN OVC001 M06/M07 A3006 RMK AO2 LTG DSNT E
KMYP 201853Z AUTO 08014KT M1/4SM FZFG OVC001 M06/M07 A3005 RMK AO2 LTG DSNT E SW AND NW
KMYP 201836Z AUTO 07017KT M1/4SM FZFG OVC001 M05/M07 A3004 RMK AO2 LTG DSNT E AND NW
KMYP 201814Z AUTO 08003KT OVC001 M06/M06 A3006 RMK AO2 LTG DSNT E PWINO
KMYP 201753Z AUTO 10005KT OVC001 M06/M06 A3005 RMK AO2 PWINO
KMYP 201736Z AUTO 10006KT OVC001 M06/M06 A3005 RMK AO2 LTG DSNT NW PWINO
KMYP 201715Z AUTO 15009G19KT 110V180 OVC001 M05/M06 A3004 RMK AO2 LTG DSNT E PWINO
KMYP 201650Z AUTO 11008G18KT 090V150 OVC001 M05/M06 A3005 RMK AO2 PWINO
KMYP 201632Z AUTO 08011KT M1/4SM FZFG OVC001 M05/M06 A3004 RMK AO2 LTG DSNT E
KMYP 201613Z AUTO 09010KT M1/4SM FZFG OVC001 M04/M05 A3005 RMK AO2 LTG DSNT SE
KMYP 201552Z AUTO 10005KT M1/4SM FZFG OVC001 M04/M05 A3006 RMK AO2
KMYP 201533Z AUTO 11007KT M1/4SM FZFG OVC001 M04/M05 A3006 RMK AO2